sensor_id;sensor_type;location;lat;lon;timestamp;P1;durP1;ratioP1;P2;durP2;ratioP2
48550;SDS011;34397;51.176;6.738;2023-04-20T00:00:49;3.05;;;2.00;;
48550;SDS011;34397;51.176;6.738;2023-04-20T00:03:22;2.63;;;1.60;;
48550;SDS011;34397;51.176;6.738;2023-04-20T00:05:56;4.80;;;2.17;;
48550;SDS011;34397;51.176;6.738;2023-04-20T00:08:30;4.10;;;2.15;;
48550;SDS011;34397;51.176;6.738;2023-04-20T00:11:01;5.22;;;2.20;;
48550;SDS011;34397;51.176;6.738;2023-04-20T00:13:33;3.17;;;1.98;;
48550;SDS011;34397;51.176;6.738;2023-04-20T00:16:05;3.58;;;2.30;;
48550;SDS011;34397;51.176;6.738;2023-04-20T00:18:39;7.38;;;2.30;;
48550;SDS011;34397;51.176;6.738;2023-04-20T00:21:11;3.42;;;2.17;;
48550;SDS011;34397;51.176;6.738;2023-04-20T00:23:43;2.70;;;2.00;;
48550;SDS011;34397;51.176;6.738;2023-04-20T00:26:15;3.63;;;2.30;;
48550;SDS011;34397;51.176;6.738;2023-04-20T00:28:49;4.93;;;2.20;;
48550;SDS011;34397;51.176;6.738;2023-04-20T00:31:21;2.75;;;2.03;;
48550;SDS011;34397;51.176;6.738;2023-04-20T00:33:55;3.60;;;1.80;;
48550;SDS011;34397;51.176;6.738;2023-04-20T00:36:26;3.72;;;1.98;;
48550;SDS011;34397;51.176;6.738;2023-04-20T00:38:58;4.70;;;2.28;;
48550;SDS011;34397;51.176;6.738;2023-04-20T00:44:03;4.13;;;2.45;;
48550;SDS011;34397;51.176;6.738;2023-04-20T00:46:40;3.42;;;2.22;;
48550;SDS011;34397;51.176;6.738;2023-04-20T00:49:13;4.10;;;2.05;;
48550;SDS011;34397;51.176;6.738;2023-04-20T00:51:46;3.47;;;2.33;;
48550;SDS011;34397;51.176;6.738;2023-04-20T00:54:18;3.60;;;2.38;;
48550;SDS011;34397;51.176;6.738;2023-04-20T00:56:50;4.47;;;2.38;;
48550;SDS011;34397;51.176;6.738;2023-04-20T00:59:24;5.05;;;2.10;;
48550;SDS011;34397;51.176;6.738;2023-04-20T01:01:56;4.43;;;2.20;;
48550;SDS011;34397;51.176;6.738;2023-04-20T01:04:29;4.85;;;2.30;;
48550;SDS011;34397;51.176;6.738;2023-04-20T01:07:01;4.47;;;2.40;;
48550;SDS011;34397;51.176;6.738;2023-04-20T01:09:36;5.07;;;2.03;;
48550;SDS011;34397;51.176;6.738;2023-04-20T01:12:08;3.72;;;2.30;;
48550;SDS011;34397;51.176;6.738;2023-04-20T01:14:41;2.92;;;1.83;;
48550;SDS011;34397;51.176;6.738;2023-04-20T01:17:13;4.50;;;2.38;;
48550;SDS011;34397;51.176;6.738;2023-04-20T01:19:46;2.83;;;2.00;;
48550;SDS011;34397;51.176;6.738;2023-04-20T01:22:19;6.75;;;2.20;;
48550;SDS011;34397;51.176;6.738;2023-04-20T01:24:51;4.28;;;1.95;;
48550;SDS011;34397;51.176;6.738;2023-04-20T01:27:23;3.75;;;2.17;;
48550;SDS011;34397;51.176;6.738;2023-04-20T01:29:55;5.82;;;2.65;;
48550;SDS011;34397;51.176;6.738;2023-04-20T01:32:27;5.68;;;2.55;;
48550;SDS011;34397;51.176;6.738;2023-04-20T01:34:59;5.95;;;2.17;;
48550;SDS011;34397;51.176;6.738;2023-04-20T01:37:33;8.07;;;2.75;;
48550;SDS011;34397;51.176;6.738;2023-04-20T01:40:07;5.63;;;1.60;;
48550;SDS011;34397;51.176;6.738;2023-04-20T01:42:40;4.15;;;2.10;;
48550;SDS011;34397;51.176;6.738;2023-04-20T01:45:12;7.47;;;2.00;;
48550;SDS011;34397;51.176;6.738;2023-04-20T01:47:44;5.78;;;1.92;;
48550;SDS011;34397;51.176;6.738;2023-04-20T01:50:16;4.93;;;2.05;;
48550;SDS011;34397;51.176;6.738;2023-04-20T01:52:49;5.50;;;2.10;;
48550;SDS011;34397;51.176;6.738;2023-04-20T01:55:21;4.47;;;2.10;;
48550;SDS011;34397;51.176;6.738;2023-04-20T01:57:53;6.38;;;2.10;;
48550;SDS011;34397;51.176;6.738;2023-04-20T02:00:25;5.65;;;1.90;;
48550;SDS011;34397;51.176;6.738;2023-04-20T02:02:56;5.22;;;2.17;;
48550;SDS011;34397;51.176;6.738;2023-04-20T02:05:28;4.63;;;1.85;;
48550;SDS011;34397;51.176;6.738;2023-04-20T02:08:01;3.35;;;2.05;;
48550;SDS011;34397;51.176;6.738;2023-04-20T02:10:33;5.68;;;2.05;;
48550;SDS011;34397;51.176;6.738;2023-04-20T02:13:05;7.25;;;2.42;;
48550;SDS011;34397;51.176;6.738;2023-04-20T02:15:37;6.30;;;1.92;;
48550;SDS011;34397;51.176;6.738;2023-04-20T02:18:09;3.15;;;2.13;;
48550;SDS011;34397;51.176;6.738;2023-04-20T02:20:41;4.07;;;2.08;;
48550;SDS011;34397;51.176;6.738;2023-04-20T02:23:15;3.83;;;2.05;;
48550;SDS011;34397;51.176;6.738;2023-04-20T02:25:46;2.83;;;1.95;;
48550;SDS011;34397;51.176;6.738;2023-04-20T02:28:18;12.18;;;3.05;;
48550;SDS011;34397;51.176;6.738;2023-04-20T02:30:50;5.82;;;2.45;;
48550;SDS011;34397;51.176;6.738;2023-04-20T02:33:22;2.88;;;1.83;;
48550;SDS011;34397;51.176;6.738;2023-04-20T02:35:54;3.58;;;2.10;;
48550;SDS011;34397;51.176;6.738;2023-04-20T02:38:27;3.75;;;1.95;;
48550;SDS011;34397;51.176;6.738;2023-04-20T02:40:59;4.90;;;2.00;;
48550;SDS011;34397;51.176;6.738;2023-04-20T02:43:30;4.20;;;2.00;;
48550;SDS011;34397;51.176;6.738;2023-04-20T02:46:05;3.75;;;1.80;;
48550;SDS011;34397;51.176;6.738;2023-04-20T02:48:37;2.40;;;1.67;;
48550;SDS011;34397;51.176;6.738;2023-04-20T02:51:08;3.28;;;1.88;;
48550;SDS011;34397;51.176;6.738;2023-04-20T02:53:42;5.35;;;1.90;;
48550;SDS011;34397;51.176;6.738;2023-04-20T02:56:13;3.72;;;2.03;;
48550;SDS011;34397;51.176;6.738;2023-04-20T02:58:45;3.15;;;1.85;;
48550;SDS011;34397;51.176;6.738;2023-04-20T03:01:21;3.90;;;2.00;;
48550;SDS011;34397;51.176;6.738;2023-04-20T03:03:52;4.05;;;1.83;;
48550;SDS011;34397;51.176;6.738;2023-04-20T03:06:24;3.65;;;1.77;;
48550;SDS011;34397;51.176;6.738;2023-04-20T03:08:58;4.60;;;2.13;;
48550;SDS011;34397;51.176;6.738;2023-04-20T03:11:30;3.83;;;1.85;;
48550;SDS011;34397;51.176;6.738;2023-04-20T03:14:02;3.30;;;1.90;;
48550;SDS011;34397;51.176;6.738;2023-04-20T03:16:34;3.47;;;1.92;;
48550;SDS011;34397;51.176;6.738;2023-04-20T03:19:05;3.45;;;1.95;;
48550;SDS011;34397;51.176;6.738;2023-04-20T03:21:37;4.28;;;1.88;;
48550;SDS011;34397;51.176;6.738;2023-04-20T03:24:11;2.80;;;1.90;;
48550;SDS011;34397;51.176;6.738;2023-04-20T03:26:42;4.10;;;1.98;;
48550;SDS011;34397;51.176;6.738;2023-04-20T03:29:14;5.35;;;2.00;;
48550;SDS011;34397;51.176;6.738;2023-04-20T03:31:46;6.13;;;2.17;;
48550;SDS011;34397;51.176;6.738;2023-04-20T03:34:18;2.80;;;1.60;;
48550;SDS011;34397;51.176;6.738;2023-04-20T03:39:23;4.22;;;2.22;;
48550;SDS011;34397;51.176;6.738;2023-04-20T03:41:55;4.03;;;1.77;;
48550;SDS011;34397;51.176;6.738;2023-04-20T03:44:28;3.30;;;1.75;;
48550;SDS011;34397;51.176;6.738;2023-04-20T03:47:00;3.78;;;1.80;;
48550;SDS011;34397;51.176;6.738;2023-04-20T03:49:31;4.03;;;1.60;;
48550;SDS011;34397;51.176;6.738;2023-04-20T03:52:04;5.50;;;1.60;;
48550;SDS011;34397;51.176;6.738;2023-04-20T03:54:38;5.10;;;1.88;;
48550;SDS011;34397;51.176;6.738;2023-04-20T03:57:10;3.58;;;1.60;;
48550;SDS011;34397;51.176;6.738;2023-04-20T03:59:42;6.65;;;1.77;;
48550;SDS011;34397;51.176;6.738;2023-04-20T04:02:14;3.95;;;1.83;;
48550;SDS011;34397;51.176;6.738;2023-04-20T04:04:46;5.15;;;1.75;;
48550;SDS011;34397;51.176;6.738;2023-04-20T04:07:17;3.20;;;1.98;;
48550;SDS011;34397;51.176;6.738;2023-04-20T04:09:50;5.82;;;1.98;;
48550;SDS011;34397;51.176;6.738;2023-04-20T04:12:22;3.55;;;2.00;;
48550;SDS011;34397;51.176;6.738;2023-04-20T04:14:54;5.07;;;2.17;;
48550;SDS011;34397;51.176;6.738;2023-04-20T04:17:26;4.05;;;2.00;;
48550;SDS011;34397;51.176;6.738;2023-04-20T04:19:58;4.32;;;2.10;;
48550;SDS011;34397;51.176;6.738;2023-04-20T04:22:30;5.68;;;1.90;;
48550;SDS011;34397;51.176;6.738;2023-04-20T04:25:03;5.50;;;2.13;;
48550;SDS011;34397;51.176;6.738;2023-04-20T04:27:36;4.78;;;1.90;;
48550;SDS011;34397;51.176;6.738;2023-04-20T04:30:09;4.25;;;2.08;;
48550;SDS011;34397;51.176;6.738;2023-04-20T04:32:43;4.53;;;1.88;;
48550;SDS011;34397;51.176;6.738;2023-04-20T04:35:15;5.53;;;2.40;;
48550;SDS011;34397;51.176;6.738;2023-04-20T04:37:47;4.53;;;1.90;;
48550;SDS011;34397;51.176;6.738;2023-04-20T04:40:20;7.55;;;1.98;;
48550;SDS011;34397;51.176;6.738;2023-04-20T04:42:52;5.70;;;2.13;;
48550;SDS011;34397;51.176;6.738;2023-04-20T04:45:24;5.20;;;2.30;;
48550;SDS011;34397;51.176;6.738;2023-04-20T04:47:57;3.95;;;2.03;;
48550;SDS011;34397;51.176;6.738;2023-04-20T04:50:29;4.75;;;1.92;;
48550;SDS011;34397;51.176;6.738;2023-04-20T04:53:01;6.95;;;3.30;;
48550;SDS011;34397;51.176;6.738;2023-04-20T04:55:34;5.70;;;2.17;;
48550;SDS011;34397;51.176;6.738;2023-04-20T04:58:05;3.35;;;1.80;;
48550;SDS011;34397;51.176;6.738;2023-04-20T05:00:37;3.58;;;1.88;;
48550;SDS011;34397;51.176;6.738;2023-04-20T05:03:09;3.05;;;1.80;;
48550;SDS011;34397;51.176;6.738;2023-04-20T05:05:41;5.13;;;2.20;;
48550;SDS011;34397;51.176;6.738;2023-04-20T05:08:13;5.13;;;2.13;;
48550;SDS011;34397;51.176;6.738;2023-04-20T05:10:46;3.88;;;2.10;;
48550;SDS011;34397;51.176;6.738;2023-04-20T05:13:18;3.58;;;2.50;;
48550;SDS011;34397;51.176;6.738;2023-04-20T05:15:50;4.68;;;2.38;;
48550;SDS011;34397;51.176;6.738;2023-04-20T05:18:22;4.63;;;2.22;;
48550;SDS011;34397;51.176;6.738;2023-04-20T05:20:54;3.13;;;2.33;;
48550;SDS011;34397;51.176;6.738;2023-04-20T05:23:26;5.68;;;2.47;;
48550;SDS011;34397;51.176;6.738;2023-04-20T05:25:59;4.05;;;2.60;;
48550;SDS011;34397;51.176;6.738;2023-04-20T05:28:31;3.95;;;2.40;;
48550;SDS011;34397;51.176;6.738;2023-04-20T05:31:04;4.93;;;3.00;;
48550;SDS011;34397;51.176;6.738;2023-04-20T05:33:37;4.32;;;2.95;;
48550;SDS011;34397;51.176;6.738;2023-04-20T05:36:08;4.32;;;2.55;;
48550;SDS011;34397;51.176;6.738;2023-04-20T05:38:40;6.03;;;2.80;;
48550;SDS011;34397;51.176;6.738;2023-04-20T05:41:13;6.32;;;3.40;;
48550;SDS011;34397;51.176;6.738;2023-04-20T05:43:45;9.75;;;3.17;;
48550;SDS011;34397;51.176;6.738;2023-04-20T05:46:17;5.45;;;3.10;;
48550;SDS011;34397;51.176;6.738;2023-04-20T05:48:49;5.55;;;3.03;;
48550;SDS011;34397;51.176;6.738;2023-04-20T05:51:21;6.53;;;3.58;;
48550;SDS011;34397;51.176;6.738;2023-04-20T05:53:54;5.45;;;3.55;;
48550;SDS011;34397;51.176;6.738;2023-04-20T05:56:27;5.65;;;3.88;;
48550;SDS011;34397;51.176;6.738;2023-04-20T05:58:59;4.78;;;3.03;;
48550;SDS011;34397;51.176;6.738;2023-04-20T06:01:32;7.30;;;4.00;;
48550;SDS011;34397;51.176;6.738;2023-04-20T06:04:04;5.95;;;3.30;;
48550;SDS011;34397;51.176;6.738;2023-04-20T06:06:35;5.72;;;3.47;;
48550;SDS011;34397;51.176;6.738;2023-04-20T06:09:07;5.45;;;3.70;;
48550;SDS011;34397;51.176;6.738;2023-04-20T06:11:40;6.03;;;4.18;;
48550;SDS011;34397;51.176;6.738;2023-04-20T06:14:12;5.38;;;3.78;;
48550;SDS011;34397;51.176;6.738;2023-04-20T06:16:44;7.82;;;3.83;;
48550;SDS011;34397;51.176;6.738;2023-04-20T06:19:16;4.63;;;4.05;;
48550;SDS011;34397;51.176;6.738;2023-04-20T06:21:48;4.07;;;3.53;;
48550;SDS011;34397;51.176;6.738;2023-04-20T06:24:20;4.40;;;3.50;;
48550;SDS011;34397;51.176;6.738;2023-04-20T06:26:53;4.75;;;3.60;;
48550;SDS011;34397;51.176;6.738;2023-04-20T06:29:26;5.40;;;3.92;;
48550;SDS011;34397;51.176;6.738;2023-04-20T06:31:58;6.45;;;4.05;;
48550;SDS011;34397;51.176;6.738;2023-04-20T06:34:30;6.50;;;4.07;;
48550;SDS011;34397;51.176;6.738;2023-04-20T06:37:04;6.75;;;4.03;;
48550;SDS011;34397;51.176;6.738;2023-04-20T06:39:37;4.55;;;3.85;;
48550;SDS011;34397;51.176;6.738;2023-04-20T06:42:10;5.50;;;3.90;;
48550;SDS011;34397;51.176;6.738;2023-04-20T06:44:42;5.68;;;4.30;;
48550;SDS011;34397;51.176;6.738;2023-04-20T06:47:14;5.07;;;4.30;;
48550;SDS011;34397;51.176;6.738;2023-04-20T06:49:46;7.05;;;4.13;;
48550;SDS011;34397;51.176;6.738;2023-04-20T06:52:18;8.18;;;3.90;;
48550;SDS011;34397;51.176;6.738;2023-04-20T06:54:50;4.88;;;4.10;;
48550;SDS011;34397;51.176;6.738;2023-04-20T06:57:23;5.65;;;4.30;;
48550;SDS011;34397;51.176;6.738;2023-04-20T06:59:55;4.70;;;4.22;;
48550;SDS011;34397;51.176;6.738;2023-04-20T07:02:27;4.70;;;3.83;;
48550;SDS011;34397;51.176;6.738;2023-04-20T07:04:59;5.40;;;3.28;;
48550;SDS011;34397;51.176;6.738;2023-04-20T07:07:31;4.32;;;3.03;;
48550;SDS011;34397;51.176;6.738;2023-04-20T07:10:03;3.83;;;2.20;;
48550;SDS011;34397;51.176;6.738;2023-04-20T07:12:38;3.45;;;2.28;;
48550;SDS011;34397;51.176;6.738;2023-04-20T07:15:11;2.97;;;2.00;;
48550;SDS011;34397;51.176;6.738;2023-04-20T07:17:43;5.15;;;1.85;;
48550;SDS011;34397;51.176;6.738;2023-04-20T07:20:15;2.45;;;1.95;;
48550;SDS011;34397;51.176;6.738;2023-04-20T07:22:46;3.90;;;2.30;;
48550;SDS011;34397;51.176;6.738;2023-04-20T07:25:18;3.20;;;1.90;;
48550;SDS011;34397;51.176;6.738;2023-04-20T07:27:51;3.47;;;2.45;;
48550;SDS011;34397;51.176;6.738;2023-04-20T07:30:23;2.55;;;2.10;;
48550;SDS011;34397;51.176;6.738;2023-04-20T07:32:55;2.80;;;2.25;;
48550;SDS011;34397;51.176;6.738;2023-04-20T07:35:27;3.97;;;2.25;;
48550;SDS011;34397;51.176;6.738;2023-04-20T07:37:59;2.55;;;2.15;;
48550;SDS011;34397;51.176;6.738;2023-04-20T07:40:31;4.43;;;2.25;;
48550;SDS011;34397;51.176;6.738;2023-04-20T07:43:04;5.82;;;2.50;;
48550;SDS011;34397;51.176;6.738;2023-04-20T07:45:37;3.35;;;2.50;;
48550;SDS011;34397;51.176;6.738;2023-04-20T07:48:10;3.92;;;2.30;;
48550;SDS011;34397;51.176;6.738;2023-04-20T07:50:42;3.50;;;2.40;;
48550;SDS011;34397;51.176;6.738;2023-04-20T07:53:14;2.88;;;2.17;;
48550;SDS011;34397;51.176;6.738;2023-04-20T07:55:46;2.97;;;2.00;;
48550;SDS011;34397;51.176;6.738;2023-04-20T07:58:19;3.33;;;2.35;;
48550;SDS011;34397;51.176;6.738;2023-04-20T08:00:51;3.55;;;2.42;;
48550;SDS011;34397;51.176;6.738;2023-04-20T08:03:23;4.72;;;2.40;;
48550;SDS011;34397;51.176;6.738;2023-04-20T08:05:56;3.25;;;2.65;;
48550;SDS011;34397;51.176;6.738;2023-04-20T08:08:28;2.60;;;2.00;;
48550;SDS011;34397;51.176;6.738;2023-04-20T08:11:00;3.10;;;2.67;;
48550;SDS011;34397;51.176;6.738;2023-04-20T08:13:33;5.53;;;2.47;;
48550;SDS011;34397;51.176;6.738;2023-04-20T08:16:06;3.53;;;2.15;;
48550;SDS011;34397;51.176;6.738;2023-04-20T08:18:38;3.72;;;2.38;;
48550;SDS011;34397;51.176;6.738;2023-04-20T08:21:10;3.20;;;2.45;;
48550;SDS011;34397;51.176;6.738;2023-04-20T08:23:42;4.13;;;2.63;;
48550;SDS011;34397;51.176;6.738;2023-04-20T08:26:14;3.35;;;2.42;;
48550;SDS011;34397;51.176;6.738;2023-04-20T08:31:20;5.10;;;2.47;;
48550;SDS011;34397;51.176;6.738;2023-04-20T08:33:52;3.25;;;2.47;;
48550;SDS011;34397;51.176;6.738;2023-04-20T08:36:23;4.97;;;2.70;;
48550;SDS011;34397;51.176;6.738;2023-04-20T08:39:04;3.05;;;2.60;;
48550;SDS011;34397;51.176;6.738;2023-04-20T08:41:38;5.85;;;3.40;;
48550;SDS011;34397;51.176;6.738;2023-04-20T08:44:11;4.55;;;3.28;;
48550;SDS011;34397;51.176;6.738;2023-04-20T08:46:43;4.25;;;2.60;;
48550;SDS011;34397;51.176;6.738;2023-04-20T08:49:18;4.03;;;2.92;;
48550;SDS011;34397;51.176;6.738;2023-04-20T08:51:50;3.72;;;3.00;;
48550;SDS011;34397;51.176;6.738;2023-04-20T08:54:23;4.55;;;2.97;;
48550;SDS011;34397;51.176;6.738;2023-04-20T08:56:55;5.55;;;2.88;;
48550;SDS011;34397;51.176;6.738;2023-04-20T08:59:30;4.40;;;3.20;;
48550;SDS011;34397;51.176;6.738;2023-04-20T09:02:08;5.43;;;3.03;;
48550;SDS011;34397;51.176;6.738;2023-04-20T09:04:41;3.38;;;2.72;;
48550;SDS011;34397;51.176;6.738;2023-04-20T09:07:16;4.05;;;3.42;;
48550;SDS011;34397;51.176;6.738;2023-04-20T09:09:53;4.15;;;2.90;;
48550;SDS011;34397;51.176;6.738;2023-04-20T09:12:26;4.35;;;3.58;;
48550;SDS011;34397;51.176;6.738;2023-04-20T09:14:59;5.38;;;3.70;;
48550;SDS011;34397;51.176;6.738;2023-04-20T09:17:33;4.00;;;3.60;;
48550;SDS011;34397;51.176;6.738;2023-04-20T09:20:08;5.15;;;3.35;;
48550;SDS011;34397;51.176;6.738;2023-04-20T09:22:41;6.05;;;4.00;;
48550;SDS011;34397;51.176;6.738;2023-04-20T09:25:13;8.45;;;3.80;;
48550;SDS011;34397;51.176;6.738;2023-04-20T09:27:53;6.60;;;4.18;;
48550;SDS011;34397;51.176;6.738;2023-04-20T09:30:36;6.68;;;4.15;;
48550;SDS011;34397;51.176;6.738;2023-04-20T09:33:09;4.80;;;4.18;;
48550;SDS011;34397;51.176;6.738;2023-04-20T09:35:43;4.70;;;3.80;;
48550;SDS011;34397;51.176;6.738;2023-04-20T09:38:16;4.68;;;3.83;;
48550;SDS011;34397;51.176;6.738;2023-04-20T09:40:55;6.10;;;3.63;;
48550;SDS011;34397;51.176;6.738;2023-04-20T09:43:30;4.15;;;2.90;;
48550;SDS011;34397;51.176;6.738;2023-04-20T09:46:05;3.42;;;2.72;;
48550;SDS011;34397;51.176;6.738;2023-04-20T09:48:38;4.00;;;2.92;;
48550;SDS011;34397;51.176;6.738;2023-04-20T09:51:10;3.55;;;3.10;;
48550;SDS011;34397;51.176;6.738;2023-04-20T09:53:42;3.85;;;3.45;;
48550;SDS011;34397;51.176;6.738;2023-04-20T09:56:16;4.03;;;3.30;;
48550;SDS011;34397;51.176;6.738;2023-04-20T09:58:50;4.35;;;3.28;;
48550;SDS011;34397;51.176;6.738;2023-04-20T10:01:24;4.20;;;3.42;;
48550;SDS011;34397;51.176;6.738;2023-04-20T10:03:56;5.53;;;3.30;;
48550;SDS011;34397;51.176;6.738;2023-04-20T10:06:31;2.72;;;2.40;;
48550;SDS011;34397;51.176;6.738;2023-04-20T10:09:06;2.92;;;2.42;;
48550;SDS011;34397;51.176;6.738;2023-04-20T10:11:39;2.60;;;2.40;;
48550;SDS011;34397;51.176;6.738;2023-04-20T10:14:15;3.33;;;2.03;;
48550;SDS011;34397;51.176;6.738;2023-04-20T10:16:58;2.38;;;1.98;;
48550;SDS011;34397;51.176;6.738;2023-04-20T10:19:38;2.50;;;1.80;;
48550;SDS011;34397;51.176;6.738;2023-04-20T10:22:11;2.30;;;2.00;;
48550;SDS011;34397;51.176;6.738;2023-04-20T10:24:55;1.83;;;1.63;;
48550;SDS011;34397;51.176;6.738;2023-04-20T10:27:27;1.77;;;1.65;;
48550;SDS011;34397;51.176;6.738;2023-04-20T10:30:08;2.58;;;1.73;;
48550;SDS011;34397;51.176;6.738;2023-04-20T10:32:41;3.85;;;1.65;;
48550;SDS011;34397;51.176;6.738;2023-04-20T10:35:13;1.80;;;1.60;;
48550;SDS011;34397;51.176;6.738;2023-04-20T10:40:23;2.75;;;1.45;;
48550;SDS011;34397;51.176;6.738;2023-04-20T10:42:56;2.30;;;2.00;;
48550;SDS011;34397;51.176;6.738;2023-04-20T10:45:34;2.15;;;1.60;;
48550;SDS011;34397;51.176;6.738;2023-04-20T10:48:09;1.58;;;1.30;;
48550;SDS011;34397;51.176;6.738;2023-04-20T10:50:41;2.22;;;1.50;;
48550;SDS011;34397;51.176;6.738;2023-04-20T10:53:16;1.42;;;1.10;;
48550;SDS011;34397;51.176;6.738;2023-04-20T10:55:56;2.75;;;1.30;;
48550;SDS011;34397;51.176;6.738;2023-04-20T10:58:29;1.38;;;1.20;;
48550;SDS011;34397;51.176;6.738;2023-04-20T11:01:02;1.20;;;1.10;;
48550;SDS011;34397;51.176;6.738;2023-04-20T11:03:36;1.65;;;1.10;;
48550;SDS011;34397;51.176;6.738;2023-04-20T11:06:08;1.48;;;1.20;;
48550;SDS011;34397;51.176;6.738;2023-04-20T11:08:41;1.60;;;1.30;;
48550;SDS011;34397;51.176;6.738;2023-04-20T11:11:16;1.90;;;1.42;;
48550;SDS011;34397;51.176;6.738;2023-04-20T11:13:50;2.15;;;0.93;;
48550;SDS011;34397;51.176;6.738;2023-04-20T11:16:22;1.98;;;1.60;;
48550;SDS011;34397;51.176;6.738;2023-04-20T11:18:55;1.30;;;1.17;;
48550;SDS011;34397;51.176;6.738;2023-04-20T11:21:34;2.45;;;1.30;;
48550;SDS011;34397;51.176;6.738;2023-04-20T11:24:16;1.00;;;0.93;;
48550;SDS011;34397;51.176;6.738;2023-04-20T11:26:49;1.27;;;1.00;;
48550;SDS011;34397;51.176;6.738;2023-04-20T11:29:29;1.30;;;1.10;;
48550;SDS011;34397;51.176;6.738;2023-04-20T11:32:03;1.75;;;1.50;;
48550;SDS011;34397;51.176;6.738;2023-04-20T11:34:38;1.40;;;1.30;;
48550;SDS011;34397;51.176;6.738;2023-04-20T11:37:10;1.10;;;1.00;;
48550;SDS011;34397;51.176;6.738;2023-04-20T11:39:42;1.27;;;1.17;;
48550;SDS011;34397;51.176;6.738;2023-04-20T11:42:14;1.10;;;1.00;;
48550;SDS011;34397;51.176;6.738;2023-04-20T11:44:46;5.35;;;1.10;;
48550;SDS011;34397;51.176;6.738;2023-04-20T11:47:18;1.40;;;1.27;;
48550;SDS011;34397;51.176;6.738;2023-04-20T11:49:51;1.70;;;1.25;;
48550;SDS011;34397;51.176;6.738;2023-04-20T11:52:23;1.88;;;1.55;;
48550;SDS011;34397;51.176;6.738;2023-04-20T11:54:55;2.22;;;1.33;;
48550;SDS011;34397;51.176;6.738;2023-04-20T11:57:27;1.70;;;1.30;;
48550;SDS011;34397;51.176;6.738;2023-04-20T11:59:59;1.80;;;1.17;;
48550;SDS011;34397;51.176;6.738;2023-04-20T12:02:30;1.13;;;0.90;;
48550;SDS011;34397;51.176;6.738;2023-04-20T12:05:04;1.75;;;0.90;;
48550;SDS011;34397;51.176;6.738;2023-04-20T12:07:37;0.90;;;0.70;;
48550;SDS011;34397;51.176;6.738;2023-04-20T12:10:09;1.60;;;1.00;;
48550;SDS011;34397;51.176;6.738;2023-04-20T12:12:41;1.00;;;0.90;;
48550;SDS011;34397;51.176;6.738;2023-04-20T12:15:13;1.05;;;0.80;;
48550;SDS011;34397;51.176;6.738;2023-04-20T12:17:45;1.15;;;0.73;;
48550;SDS011;34397;51.176;6.738;2023-04-20T12:20:18;1.27;;;0.93;;
48550;SDS011;34397;51.176;6.738;2023-04-20T12:22:50;2.22;;;1.10;;
48550;SDS011;34397;51.176;6.738;2023-04-20T12:25:22;0.82;;;0.80;;
48550;SDS011;34397;51.176;6.738;2023-04-20T12:27:53;1.20;;;0.88;;
48550;SDS011;34397;51.176;6.738;2023-04-20T12:30:25;2.33;;;0.85;;
48550;SDS011;34397;51.176;6.738;2023-04-20T12:32:57;0.70;;;0.63;;
48550;SDS011;34397;51.176;6.738;2023-04-20T12:35:30;0.88;;;0.73;;
48550;SDS011;34397;51.176;6.738;2023-04-20T12:38:02;0.88;;;0.80;;
48550;SDS011;34397;51.176;6.738;2023-04-20T12:40:34;1.15;;;1.00;;
48550;SDS011;34397;51.176;6.738;2023-04-20T12:43:06;1.20;;;0.90;;
48550;SDS011;34397;51.176;6.738;2023-04-20T12:45:38;1.80;;;1.52;;
48550;SDS011;34397;51.176;6.738;2023-04-20T12:48:10;1.10;;;1.00;;
48550;SDS011;34397;51.176;6.738;2023-04-20T12:50:43;3.60;;;1.30;;
48550;SDS011;34397;51.176;6.738;2023-04-20T12:53:15;2.03;;;1.20;;
48550;SDS011;34397;51.176;6.738;2023-04-20T12:55:47;1.75;;;1.20;;
48550;SDS011;34397;51.176;6.738;2023-04-20T12:58:19;2.00;;;1.23;;
48550;SDS011;34397;51.176;6.738;2023-04-20T13:00:51;1.58;;;1.20;;
48550;SDS011;34397;51.176;6.738;2023-04-20T13:03:23;1.40;;;1.30;;
48550;SDS011;34397;51.176;6.738;2023-04-20T13:08:28;1.52;;;1.40;;
48550;SDS011;34397;51.176;6.738;2023-04-20T13:11:00;1.70;;;1.52;;
48550;SDS011;34397;51.176;6.738;2023-04-20T13:16:04;1.43;;;1.33;;
48550;SDS011;34397;51.176;6.738;2023-04-20T13:21:09;1.88;;;1.60;;
48550;SDS011;34397;51.176;6.738;2023-04-20T13:23:41;1.92;;;1.27;;
48550;SDS011;34397;51.176;6.738;2023-04-20T13:26:13;1.40;;;1.30;;
48550;SDS011;34397;51.176;6.738;2023-04-20T13:28:45;4.70;;;1.98;;
48550;SDS011;34397;51.176;6.738;2023-04-20T13:31:17;3.20;;;1.88;;
48550;SDS011;34397;51.176;6.738;2023-04-20T13:33:48;2.17;;;1.70;;
48550;SDS011;34397;51.176;6.738;2023-04-20T13:36:24;3.08;;;1.60;;
48550;SDS011;34397;51.176;6.738;2023-04-20T13:38:57;2.17;;;1.80;;
48550;SDS011;34397;51.176;6.738;2023-04-20T13:44:01;1.92;;;1.52;;
48550;SDS011;34397;51.176;6.738;2023-04-20T13:46:34;4.22;;;1.95;;
48550;SDS011;34397;51.176;6.738;2023-04-20T13:49:06;2.25;;;1.80;;
48550;SDS011;34397;51.176;6.738;2023-04-20T13:51:39;2.40;;;1.70;;
48550;SDS011;34397;51.176;6.738;2023-04-20T13:54:11;3.33;;;2.17;;
48550;SDS011;34397;51.176;6.738;2023-04-20T13:56:43;3.05;;;1.85;;
48550;SDS011;34397;51.176;6.738;2023-04-20T13:59:14;2.58;;;1.80;;
48550;SDS011;34397;51.176;6.738;2023-04-20T14:01:46;2.38;;;1.85;;
48550;SDS011;34397;51.176;6.738;2023-04-20T14:04:18;2.83;;;1.90;;
48550;SDS011;34397;51.176;6.738;2023-04-20T14:06:51;2.72;;;2.10;;
48550;SDS011;34397;51.176;6.738;2023-04-20T14:09:23;2.45;;;2.10;;
48550;SDS011;34397;51.176;6.738;2023-04-20T14:11:55;2.22;;;2.03;;
48550;SDS011;34397;51.176;6.738;2023-04-20T14:14:27;3.78;;;2.00;;
48550;SDS011;34397;51.176;6.738;2023-04-20T14:16:59;2.55;;;1.95;;
48550;SDS011;34397;51.176;6.738;2023-04-20T14:19:31;2.75;;;2.05;;
48550;SDS011;34397;51.176;6.738;2023-04-20T14:22:05;2.47;;;2.08;;
48550;SDS011;34397;51.176;6.738;2023-04-20T14:24:36;2.38;;;2.17;;
48550;SDS011;34397;51.176;6.738;2023-04-20T14:27:09;3.38;;;1.90;;
48550;SDS011;34397;51.176;6.738;2023-04-20T14:29:41;4.20;;;1.92;;
48550;SDS011;34397;51.176;6.738;2023-04-20T14:32:13;2.38;;;1.70;;
48550;SDS011;34397;51.176;6.738;2023-04-20T14:34:45;3.40;;;2.00;;
48550;SDS011;34397;51.176;6.738;2023-04-20T14:37:18;2.42;;;1.90;;
48550;SDS011;34397;51.176;6.738;2023-04-20T14:39:50;1.95;;;1.73;;
48550;SDS011;34397;51.176;6.738;2023-04-20T14:42:22;2.10;;;1.90;;
48550;SDS011;34397;51.176;6.738;2023-04-20T14:44:53;2.55;;;1.80;;
48550;SDS011;34397;51.176;6.738;2023-04-20T14:47:25;2.20;;;1.92;;
48550;SDS011;34397;51.176;6.738;2023-04-20T14:49:57;3.55;;;2.13;;
48550;SDS011;34397;51.176;6.738;2023-04-20T14:52:30;4.57;;;1.90;;
48550;SDS011;34397;51.176;6.738;2023-04-20T14:55:02;4.03;;;2.15;;
48550;SDS011;34397;51.176;6.738;2023-04-20T14:57:35;2.92;;;2.13;;
48550;SDS011;34397;51.176;6.738;2023-04-20T15:00:07;2.25;;;1.95;;
48550;SDS011;34397;51.176;6.738;2023-04-20T15:02:41;2.53;;;1.90;;
48550;SDS011;34397;51.176;6.738;2023-04-20T15:05:12;3.67;;;2.50;;
48550;SDS011;34397;51.176;6.738;2023-04-20T15:07:45;3.15;;;2.10;;
48550;SDS011;34397;51.176;6.738;2023-04-20T15:10:19;2.85;;;2.20;;
48550;SDS011;34397;51.176;6.738;2023-04-20T15:12:52;3.03;;;2.22;;
48550;SDS011;34397;51.176;6.738;2023-04-20T15:15:23;2.83;;;2.10;;
48550;SDS011;34397;51.176;6.738;2023-04-20T15:17:56;3.03;;;2.30;;
48550;SDS011;34397;51.176;6.738;2023-04-20T15:20:28;2.95;;;2.13;;
48550;SDS011;34397;51.176;6.738;2023-04-20T15:23:01;2.80;;;2.22;;
48550;SDS011;34397;51.176;6.738;2023-04-20T15:25:33;2.20;;;2.00;;
48550;SDS011;34397;51.176;6.738;2023-04-20T15:28:05;2.67;;;2.33;;
48550;SDS011;34397;51.176;6.738;2023-04-20T15:30:37;49.10;;;3.45;;
48550;SDS011;34397;51.176;6.738;2023-04-20T15:33:09;3.60;;;2.70;;
48550;SDS011;34397;51.176;6.738;2023-04-20T15:35:40;27.65;;;3.80;;
48550;SDS011;34397;51.176;6.738;2023-04-20T15:38:14;5.93;;;2.72;;
48550;SDS011;34397;51.176;6.738;2023-04-20T15:40:45;20.75;;;4.25;;